Time;durP1;ratioP1;P1;durP2;ratioP2;P2;SDS_P1;SDS_P2;PMS_P1;PMS_P2;Temp;Humidity;BMP_temperature;BMP_pressure;BME280_temperature;BME280_humidity;BME280_pressure;Samples;Min_cycle;Max_cycle;Signal;HPM_P1;HPM_P2
2022/11/11 00:02:31;;;;;;;13.48;8.27;;;10.80;99.90;;;;;;7365795;19;20478;-40
2022/11/11 00:05:17;;;;;;;16.08;9.23;;;10.90;99.90;;;;;;7369297;19;20022;-40
2022/11/11 00:08:01;;;;;;;13.13;9.07;;;10.90;99.90;;;;;;7371904;19;20364;-46
2022/11/11 00:10:47;;;;;;;17.30;9.68;;;10.90;99.90;;;;;;7373084;19;20025;-46
2022/11/11 00:13:33;;;;;;;13.32;9.65;;;10.90;99.90;;;;;;7368307;19;20022;-39
2022/11/11 00:16:19;;;;;;;17.13;9.13;;;10.90;99.90;;;;;;7375953;19;20521;-53
2022/11/11 00:25:24;;;;;;;15.25;9.63;;;11.00;99.90;;;;;;7375656;19;20011;-39
2022/11/11 00:28:09;;;;;;;14.88;9.95;;;11.00;99.90;;;;;;7377863;19;20014;-39
2022/11/11 00:31:01;;;;;;;16.50;9.18;;;11.00;99.90;;;;;;7376979;19;20054;-46
2022/11/11 00:33:46;;;;;;;15.00;9.52;;;11.00;99.90;;;;;;7378773;19;20538;-39
2022/11/11 00:36:31;;;;;;;12.80;9.40;;;11.00;99.90;;;;;;7375519;19;20015;-40
2022/11/11 00:39:15;;;;;;;15.13;8.80;;;11.00;99.90;;;;;;7378623;19;20482;-39
2022/11/11 00:42:00;;;;;;;18.73;9.18;;;11.10;99.90;;;;;;7377495;19;20018;-47
2022/11/11 00:44:45;;;;;;;16.45;9.48;;;11.10;99.90;;;;;;7372747;19;20026;-40
2022/11/11 00:50:57;;;;;;;18.13;10.02;;;11.10;99.90;;;;;;7377475;19;20022;-40
2022/11/11 00:53:42;;;;;;;16.83;10.25;;;11.10;99.90;;;;;;7376471;19;20029;-39
2022/11/11 00:56:27;;;;;;;17.60;9.88;;;11.10;99.90;;;;;;7375427;19;20018;-40
2022/11/11 00:59:12;;;;;;;15.82;10.35;;;11.10;99.90;;;;;;7377990;19;20637;-40
2022/11/11 01:01:57;;;;;;;19.02;10.32;;;11.00;99.90;;;;;;7375629;19;20026;-40
2022/11/11 01:04:42;;;;;;;13.88;10.80;;;11.00;99.90;;;;;;7371537;19;20358;-40
2022/11/11 01:07:28;;;;;;;14.43;10.20;;;11.00;99.90;;;;;;7376549;19;20101;-40
2022/11/11 01:10:36;;;;;;;17.52;10.02;;;11.00;99.90;;;;;;7378192;19;20502;-39
2022/11/11 01:13:20;;;;;;;18.10;10.80;;;10.90;99.90;;;;;;7374392;19;20018;-39
2022/11/11 01:16:07;;;;;;;17.88;11.43;;;10.90;99.90;;;;;;7375145;19;20030;-44
2022/11/11 01:18:53;;;;;;;19.98;11.07;;;10.90;99.90;;;;;;7372625;19;20066;-45
2022/11/11 01:21:38;;;;;;;17.45;11.07;;;10.80;99.90;;;;;;7374164;19;20018;-45
2022/11/11 01:24:23;;;;;;;16.35;10.98;;;10.80;99.90;;;;;;7376850;19;20061;-45
2022/11/11 01:27:08;;;;;;;19.30;11.95;;;10.70;99.90;;;;;;7375055;19;20022;-44
2022/11/11 01:29:53;;;;;;;16.00;12.80;;;10.60;99.90;;;;;;7372196;19;20482;-45
2022/11/11 01:32:38;;;;;;;15.35;11.32;;;10.60;99.90;;;;;;7376325;19;20521;-47
2022/11/11 01:35:23;;;;;;;19.80;12.02;;;10.60;99.90;;;;;;7374673;19;20023;-46
2022/11/11 01:38:09;;;;;;;17.15;12.52;;;10.50;99.90;;;;;;7378780;19;20018;-45
2022/11/11 01:40:54;;;;;;;18.75;12.77;;;10.40;99.90;;;;;;7372428;19;20023;-44
2022/11/11 01:43:39;;;;;;;17.60;13.13;;;10.40;99.90;;;;;;7375068;19;20022;-45
2022/11/11 01:46:30;;;;;;;17.58;13.93;;;10.30;99.90;;;;;;7377279;19;20018;-46
2022/11/11 01:49:46;;;;;;;20.05;13.95;;;10.20;99.90;;;;;;7377066;19;20046;-46
2022/11/11 01:52:35;;;;;;;21.20;13.90;;;10.20;99.90;;;;;;7373226;19;20038;-48
2022/11/11 01:55:22;;;;;;;20.60;13.27;;;10.10;99.90;;;;;;7374791;19;20023;-40
2022/11/11 01:58:12;;;;;;;21.33;14.88;;;10.10;99.90;;;;;;7373500;19;20077;-40
2022/11/11 02:00:59;;;;;;;21.25;14.85;;;10.00;99.90;;;;;;7370366;19;20046;-39
2022/11/11 02:05:41;;;;;;;24.38;15.27;;;9.90;99.90;;;;;;7375680;19;20016;-39
2022/11/11 02:06:55;;;;;;;22.08;16.77;;;9.90;99.90;;;;;;7370935;19;20486;-45
2022/11/11 02:09:44;;;;;;;23.67;16.25;;;9.90;99.90;;;;;;7373855;19;20081;-39
2022/11/11 02:15:33;;;;;;;26.08;16.70;;;9.80;99.90;;;;;;7375493;19;20074;-45
2022/11/11 02:18:19;;;;;;;24.15;17.50;;;9.80;99.90;;;;;;7375859;19;20470;-46
2022/11/11 02:21:04;;;;;;;27.92;18.70;;;9.80;99.90;;;;;;7369869;19;20025;-39
2022/11/11 02:24:09;;;;;;;24.30;16.67;;;9.70;99.90;;;;;;7368832;19;20045;-39
2022/11/11 02:26:56;;;;;;;23.75;18.38;;;9.70;99.90;;;;;;7371371;19;20022;-39
2022/11/11 02:29:43;;;;;;;27.58;19.67;;;9.80;99.90;;;;;;7371315;19;20018;-39
2022/11/11 02:32:27;;;;;;;31.75;20.83;;;9.80;99.90;;;;;;7372183;19;20429;-39
2022/11/11 02:35:24;;;;;;;23.42;18.95;;;9.80;99.90;;;;;;7373977;19;20622;-39
2022/11/11 02:38:12;;;;;;;29.08;20.75;;;9.80;99.90;;;;;;7374947;19;20145;-39
2022/11/11 02:44:01;;;;;;;27.50;19.95;;;9.80;99.90;;;;;;7374187;19;20515;-39
2022/11/11 02:46:46;;;;;;;27.35;21.05;;;9.80;99.90;;;;;;7373285;19;20006;-39
2022/11/11 02:49:31;;;;;;;32.25;21.13;;;9.80;99.90;;;;;;7374269;19;20038;-40
2022/11/11 02:52:16;;;;;;;29.48;22.85;;;9.90;99.90;;;;;;7374115;19;20025;-39
2022/11/11 02:55:01;;;;;;;31.60;22.63;;;9.90;99.90;;;;;;7370062;19;20430;-39
2022/11/11 02:57:46;;;;;;;29.27;21.52;;;10.00;99.90;;;;;;7369729;19;20776;-47
2022/11/11 03:00:31;;;;;;;26.52;20.30;;;9.90;99.90;;;;;;7366672;19;20025;-45
2022/11/11 03:03:16;;;;;;;29.90;21.77;;;9.90;99.90;;;;;;7372946;19;20025;-45
2022/11/11 03:06:01;;;;;;;28.48;22.67;;;9.80;99.90;;;;;;7372577;19;20029;-40
2022/11/11 03:08:46;;;;;;;27.02;20.48;;;9.80;99.90;;;;;;7374553;19;20490;-43
2022/11/11 03:11:31;;;;;;;28.75;22.50;;;9.70;99.90;;;;;;7374837;19;20386;-45
2022/11/11 03:14:16;;;;;;;32.50;21.75;;;9.70;99.90;;;;;;7371541;19;20022;-45
2022/11/11 03:23:15;;;;;;;34.00;24.58;;;9.70;99.90;;;;;;7368442;19;20018;-49
2022/11/11 03:25:59;;;;;;;36.30;24.90;;;9.60;99.90;;;;;;7372282;19;20026;-39
2022/11/11 03:28:44;;;;;;;37.70;24.17;;;9.60;99.90;;;;;;7367976;19;20022;-40
2022/11/11 03:31:29;;;;;;;37.47;25.10;;;9.60;99.90;;;;;;7367640;19;20026;-45
2022/11/11 03:34:19;;;;;;;29.85;24.55;;;9.60;99.90;;;;;;7374019;19;20006;-45
2022/11/11 03:40:12;;;;;;;37.63;27.42;;;9.50;99.90;;;;;;7372618;19;20383;-44
2022/11/11 03:42:56;;;;;;;33.95;25.95;;;9.60;99.90;;;;;;7370763;19;20043;-44
2022/11/11 03:45:43;;;;;;;35.45;27.38;;;9.70;99.90;;;;;;7372709;19;20018;-44
2022/11/11 03:48:31;;;;;;;37.75;27.27;;;9.70;99.90;;;;;;7374311;19;20023;-43
2022/11/11 03:51:16;;;;;;;35.42;26.48;;;9.80;99.90;;;;;;7378889;19;20997;-44
2022/11/11 03:54:00;;;;;;;38.42;26.35;;;9.80;99.90;;;;;;7374482;19;20014;-44
2022/11/11 03:56:45;;;;;;;33.83;26.20;;;9.90;99.90;;;;;;7380280;19;20382;-45
2022/11/11 03:59:29;;;;;;;37.72;26.35;;;9.90;99.90;;;;;;7374310;19;20033;-46
2022/11/11 04:11:40;;;;;;;33.90;25.52;;;10.10;99.90;;;;;;7379285;19;20028;-46
2022/11/11 04:17:29;;;;;;;32.38;26.65;;;10.10;99.90;;;;;;7379959;19;20029;-49
2022/11/11 04:23:18;;;;;;;36.92;27.63;;;10.20;99.90;;;;;;7376827;19;20022;-40
2022/11/11 04:26:02;;;;;;;39.65;26.30;;;10.20;99.90;;;;;;7376897;19;20022;-40
2022/11/11 04:34:56;;;;;;;34.97;27.25;;;10.20;99.90;;;;;;7375430;19;20019;-40
2022/11/11 04:37:49;;;;;;;36.00;25.95;;;10.30;99.90;;;;;;7379991;19;20365;-40
2022/11/11 04:46:41;;;;;;;35.03;27.88;;;10.40;99.90;;;;;;7380096;19;20035;-39
2022/11/11 04:49:26;;;;;;;34.17;26.65;;;10.40;99.90;;;;;;7379407;19;20866;-40
2022/11/11 04:52:26;;;;;;;37.95;27.20;;;10.40;99.90;;;;;;7376575;19;20024;-39
2022/11/11 04:58:18;;;;;;;33.20;26.73;;;10.40;99.90;;;;;;7376877;19;20058;-40
2022/11/11 05:01:03;;;;;;;39.60;26.48;;;10.40;99.90;;;;;;7371876;19;20014;-40
2022/11/11 05:03:47;;;;;;;32.33;26.67;;;10.40;99.90;;;;;;7374088;19;20490;-40
2022/11/11 05:09:36;;;;;;;34.08;26.55;;;10.40;99.90;;;;;;7376831;19;20038;-41
2022/11/11 05:12:22;;;;;;;36.08;26.30;;;10.50;99.90;;;;;;7376340;19;20015;-40
2022/11/11 05:21:28;;;;;;;32.65;24.33;;;10.50;99.90;;;;;;7374518;19;20486;-40
2022/11/11 05:27:17;;;;;;;38.58;27.15;;;10.50;99.90;;;;;;7374993;19;20078;-39
2022/11/11 05:30:03;;;;;;;37.92;26.55;;;10.50;99.90;;;;;;7372452;19;20044;-40
2022/11/11 05:32:49;;;;;;;30.90;25.23;;;10.50;99.90;;;;;;7377709;19;20056;-40
2022/11/11 05:35:35;;;;;;;35.55;24.80;;;10.50;99.90;;;;;;7375084;19;20014;-40
2022/11/11 05:38:20;;;;;;;40.05;25.67;;;10.50;99.90;;;;;;7378998;19;20503;-40
2022/11/11 05:41:06;;;;;;;31.13;24.48;;;10.40;99.90;;;;;;7371557;19;20029;-40
2022/11/11 05:43:50;;;;;;;32.80;24.38;;;10.40;99.90;;;;;;7376634;19;20018;-40
2022/11/11 05:46:35;;;;;;;32.17;25.35;;;10.40;99.90;;;;;;7373374;19;20039;-40
2022/11/11 05:49:21;;;;;;;34.35;24.55;;;10.40;99.90;;;;;;7378130;19;20029;-40
2022/11/11 05:52:08;;;;;;;31.55;25.40;;;10.40;99.90;;;;;;7372355;19;20031;-45
2022/11/11 05:54:53;;;;;;;33.58;25.50;;;10.40;99.90;;;;;;7368983;19;20025;-46
2022/11/11 05:57:38;;;;;;;34.08;25.63;;;10.40;99.90;;;;;;7374719;19;20015;-49
2022/11/11 06:00:23;;;;;;;35.33;24.95;;;10.40;99.90;;;;;;7374414;19;20014;-48
2022/11/11 06:03:08;;;;;;;28.60;24.15;;;10.40;99.90;;;;;;7372405;19;20023;-47
2022/11/11 06:05:53;;;;;;;33.63;24.08;;;10.50;99.90;;;;;;7372261;19;20022;-46
2022/11/11 06:08:37;;;;;;;31.63;24.23;;;10.40;99.90;;;;;;7373254;19;20141;-46
2022/11/11 06:11:23;;;;;;;29.55;23.02;;;10.40;99.90;;;;;;7371495;19;20483;-40
2022/11/11 06:14:08;;;;;;;31.52;24.83;;;10.40;99.90;;;;;;7373637;19;20070;-48
2022/11/11 06:16:53;;;;;;;33.20;24.98;;;10.40;99.90;;;;;;7373712;19;20025;-48
2022/11/11 06:19:38;;;;;;;31.73;24.05;;;10.50;99.90;;;;;;7374049;19;20660;-48
2022/11/11 06:22:55;;;;;;;34.47;24.10;;;10.50;99.90;;;;;;7373490;19;20543;-41
2022/11/11 06:28:36;;;;;;;29.65;23.42;;;10.50;99.90;;;;;;7371744;19;20028;-46
2022/11/11 06:31:26;;;;;;;32.20;23.92;;;10.50;99.90;;;;;;7369920;19;20800;-46
2022/11/11 06:34:11;;;;;;;34.50;23.83;;;10.50;99.90;;;;;;7366107;19;20011;-48
2022/11/11 06:36:55;;;;;;;31.27;23.27;;;10.50;99.90;;;;;;7371232;19;20455;-40
2022/11/11 06:39:40;;;;;;;33.35;23.70;;;10.50;99.90;;;;;;7371949;19;20022;-40
2022/11/11 06:42:25;;;;;;;36.63;24.15;;;10.50;99.90;;;;;;7372442;19;20522;-40
2022/11/11 06:45:10;;;;;;;32.10;22.27;;;10.50;99.90;;;;;;7372161;19;20052;-41
2022/11/11 06:47:55;;;;;;;29.98;23.83;;;10.50;99.90;;;;;;7371887;19;20038;-40
2022/11/11 06:50:40;;;;;;;31.52;23.13;;;10.50;99.90;;;;;;7373829;19;20015;-40
2022/11/11 06:53:27;;;;;;;28.38;22.00;;;10.50;99.90;;;;;;7377447;19;20011;-45
2022/11/11 06:56:12;;;;;;;31.00;24.90;;;10.50;99.90;;;;;;7359363;19;20037;-40
2022/11/11 06:58:57;;;;;;;29.60;23.08;;;10.50;99.90;;;;;;7353639;19;20015;-40
2022/11/11 07:01:42;;;;;;;30.98;23.17;;;10.50;99.90;;;;;;7357416;19;20488;-48
2022/11/11 07:04:27;;;;;;;29.23;22.33;;;10.50;99.90;;;;;;7358708;19;20014;-40
2022/11/11 07:07:12;;;;;;;34.40;24.10;;;10.50;99.90;;;;;;7362717;19;20017;-45
2022/11/11 07:09:57;;;;;;;29.00;21.55;;;10.50;99.90;;;;;;7361164;19;20037;-48
2022/11/11 07:12:42;;;;;;;31.65;22.50;;;10.60;99.90;;;;;;7357231;19;20042;-46
2022/11/11 07:15:28;;;;;;;29.92;21.92;;;10.60;99.90;;;;;;7361371;19;20018;-47
2022/11/11 07:18:13;;;;;;;27.40;21.63;;;10.60;99.90;;;;;;7362639;19;20496;-45
2022/11/11 07:20:58;;;;;;;30.50;22.50;;;10.60;99.90;;;;;;7356918;19;20374;-45
2022/11/11 07:23:43;;;;;;;27.52;20.55;;;10.60;99.90;;;;;;7362914;19;20727;-47
2022/11/11 07:26:28;;;;;;;31.65;21.77;;;10.60;99.90;;;;;;7368453;19;20019;-45
2022/11/11 07:29:14;;;;;;;28.35;21.38;;;10.60;99.90;;;;;;7369930;19;20421;-46
2022/11/11 07:31:59;;;;;;;28.08;20.52;;;10.60;99.90;;;;;;7369973;19;20022;-46
2022/11/11 07:34:43;;;;;;;26.95;20.33;;;10.70;99.90;;;;;;7372374;19;20384;-46
2022/11/11 07:37:30;;;;;;;28.88;20.70;;;10.70;99.90;;;;;;7369860;19;20038;-47
2022/11/11 07:40:17;;;;;;;25.27;20.52;;;10.70;99.90;;;;;;7372052;19;20406;-49
2022/11/11 07:43:02;;;;;;;24.83;19.27;;;10.70;99.90;;;;;;7369091;19;20065;-40
2022/11/11 07:45:47;;;;;;;27.73;20.58;;;10.70;99.90;;;;;;7368927;19;20018;-39
2022/11/11 07:48:32;;;;;;;28.83;20.90;;;10.70;99.90;;;;;;7372352;19;20019;-40
2022/11/11 07:51:17;;;;;;;25.92;20.33;;;10.70;99.90;;;;;;7372009;19;20602;-40
2022/11/11 07:54:02;;;;;;;25.55;20.48;;;10.70;99.90;;;;;;7366654;19;20396;-45
2022/11/11 07:56:47;;;;;;;29.77;20.13;;;10.80;99.90;;;;;;7371507;19;20925;-46
2022/11/11 07:59:32;;;;;;;26.33;18.75;;;10.80;99.90;;;;;;7374689;19;20921;-45
2022/11/11 08:02:17;;;;;;;27.65;19.58;;;10.70;99.90;;;;;;7369777;19;20494;-46
2022/11/11 08:05:03;;;;;;;23.33;19.38;;;10.80;99.90;;;;;;7370231;19;20490;-50
2022/11/11 08:07:47;;;;;;;27.08;19.55;;;10.80;99.90;;;;;;7365402;19;20039;-45
2022/11/11 08:10:33;;;;;;;24.10;17.88;;;10.80;99.90;;;;;;7370781;19;20014;-47
2022/11/11 08:16:22;;;;;;;22.30;18.00;;;10.90;99.90;;;;;;7367579;19;20027;-46
2022/11/11 08:19:07;;;;;;;26.30;18.67;;;10.90;99.90;;;;;;7360918;19;20046;-47
2022/11/11 08:21:52;;;;;;;20.85;17.58;;;10.90;99.90;;;;;;7368108;19;20027;-40
2022/11/11 08:24:37;;;;;;;21.02;17.67;;;11.00;99.90;;;;;;7372889;19;20499;-40
2022/11/11 08:27:22;;;;;;;25.15;18.38;;;11.00;99.90;;;;;;7368758;19;20537;-40
2022/11/11 08:30:08;;;;;;;23.73;17.70;;;11.00;99.90;;;;;;7369780;19;20021;-40
2022/11/11 08:33:01;;;;;;;25.25;17.92;;;11.00;99.90;;;;;;7364990;19;20729;-40
2022/11/11 08:35:47;;;;;;;22.63;17.15;;;11.10;99.90;;;;;;7373479;19;20017;-40
2022/11/11 08:38:32;;;;;;;22.33;17.20;;;11.10;99.90;;;;;;7376760;19;20074;-41
2022/11/11 08:41:17;;;;;;;26.00;17.42;;;11.10;99.90;;;;;;7375879;19;20081;-40
2022/11/11 08:44:03;;;;;;;24.05;16.77;;;11.10;99.90;;;;;;7372114;19;20022;-40
2022/11/11 08:46:48;;;;;;;23.77;16.15;;;11.20;99.90;;;;;;7377613;19;20469;-40
2022/11/11 08:49:32;;;;;;;21.25;16.58;;;11.20;99.90;;;;;;7376540;19;20550;-40
2022/11/11 08:52:17;;;;;;;26.65;17.30;;;11.30;99.90;;;;;;7377527;19;20588;-40
2022/11/11 08:55:02;;;;;;;23.73;17.30;;;11.30;99.90;;;;;;7373512;19;20525;-39
2022/11/11 08:57:47;;;;;;;20.02;15.73;;;11.40;99.90;;;;;;7374962;19;20043;-40
2022/11/11 09:00:32;;;;;;;22.65;16.05;;;11.30;99.90;;;;;;7372776;19;20075;-40
2022/11/11 09:03:17;;;;;;;20.83;15.77;;;11.30;99.90;;;;;;7376490;19;20509;-41
2022/11/11 09:06:01;;;;;;;23.17;16.98;;;11.40;99.90;;;;;;7376211;19;20039;-40
2022/11/11 09:08:47;;;;;;;21.98;15.75;;;11.40;99.90;;;;;;7370904;19;20062;-40
2022/11/11 09:11:35;;;;;;;23.45;15.38;;;11.40;99.90;;;;;;7379761;19;20022;-40
2022/11/11 09:14:20;;;;;;;18.13;15.15;;;11.40;99.90;;;;;;7375809;19;20014;-40
2022/11/11 09:17:06;;;;;;;17.30;15.20;;;11.40;99.90;;;;;;7373498;19;20486;-39
2022/11/11 09:19:51;;;;;;;21.88;15.23;;;11.40;99.90;;;;;;7374624;19;20018;-40
2022/11/11 09:22:42;;;;;;;18.27;15.10;;;11.40;99.90;;;;;;7373416;19;20363;-39
2022/11/11 09:25:27;;;;;;;17.92;14.75;;;11.40;99.90;;;;;;7376021;19;20034;-39
2022/11/11 09:28:13;;;;;;;22.50;14.63;;;11.40;99.90;;;;;;7374823;19;20023;-46
2022/11/11 09:31:02;;;;;;;19.15;13.38;;;11.40;99.90;;;;;;7370323;19;20846;-44
2022/11/11 09:33:47;;;;;;;20.70;15.13;;;11.40;99.90;;;;;;7373622;19;20010;-46
2022/11/11 09:36:33;;;;;;;19.23;15.00;;;11.30;99.90;;;;;;7370487;19;20010;-48
2022/11/11 09:39:17;;;;;;;18.33;14.45;;;11.30;99.90;;;;;;7371013;19;20019;-46
2022/11/11 09:42:05;;;;;;;17.63;13.90;;;11.40;99.90;;;;;;7370898;19;20062;-46
2022/11/11 09:45:34;;;;;;;19.23;14.45;;;11.40;99.90;;;;;;7372231;19;20447;-46
2022/11/11 09:48:37;;;;;;;17.13;14.07;;;11.40;99.90;;;;;;7374312;19;20354;-46
2022/11/11 09:51:31;;;;;;;22.60;14.48;;;11.40;99.90;;;;;;7371971;19;20410;-49
2022/11/11 09:54:39;;;;;;;17.05;13.30;;;11.50;99.90;;;;;;7369478;19;20367;-46
2022/11/11 09:57:37;;;;;;;18.00;14.00;;;11.50;99.90;;;;;;7372916;19;20018;-46
2022/11/11 10:00:27;;;;;;;18.25;13.82;;;11.50;99.90;;;;;;7376449;19;20459;-50
2022/11/11 10:03:17;;;;;;;16.35;13.98;;;11.60;99.90;;;;;;7376609;19;20017;-47
2022/11/11 10:06:12;;;;;;;17.42;13.68;;;11.60;99.90;;;;;;7374428;19;20038;-45
2022/11/11 10:09:03;;;;;;;17.02;13.65;;;11.70;99.90;;;;;;7368507;19;20014;-46
2022/11/11 10:12:14;;;;;;;18.67;14.05;;;11.80;99.90;;;;;;7365028;19;20529;-47
2022/11/11 10:15:00;;;;;;;18.33;13.65;;;11.80;99.90;;;;;;7368525;19;20018;-45
2022/11/11 10:17:55;;;;;;;19.42;14.02;;;11.80;99.90;;;;;;7367928;19;20014;-45
2022/11/11 10:20:44;;;;;;;15.65;12.57;;;11.80;99.90;;;;;;7368751;19;20448;-45
2022/11/11 10:23:33;;;;;;;18.13;13.75;;;12.00;99.90;;;;;;7368420;19;20457;-47
2022/11/11 10:26:23;;;;;;;15.85;12.98;;;12.00;99.90;;;;;;7370778;19;20014;-49
2022/11/11 10:29:18;;;;;;;18.80;13.63;;;12.10;99.90;;;;;;7368958;19;20022;-49
2022/11/11 10:32:32;;;;;;;16.42;13.70;;;12.00;99.90;;;;;;7374789;19;20475;-49
2022/11/11 10:35:20;;;;;;;16.67;13.30;;;12.00;99.90;;;;;;7371256;19;20010;-49
2022/11/11 10:38:25;;;;;;;16.02;12.48;;;12.10;99.90;;;;;;7368261;19;20025;-49
2022/11/11 10:41:17;;;;;;;16.58;12.15;;;12.10;99.90;;;;;;7373360;19;20501;-46
2022/11/11 10:44:27;;;;;;;16.23;12.82;;;12.10;99.90;;;;;;7375199;19;20085;-46
2022/11/11 10:47:28;;;;;;;15.40;12.52;;;12.10;99.90;;;;;;7368152;19;20018;-47
2022/11/11 10:50:19;;;;;;;17.48;12.23;;;12.10;99.90;;;;;;7370198;19;20010;-49
2022/11/11 10:53:25;;;;;;;15.52;12.63;;;11.90;99.90;;;;;;7365685;19;20014;-46
2022/11/11 10:56:19;;;;;;;16.10;12.23;;;11.90;99.90;;;;;;7366220;19;20568;-47
2022/11/11 10:59:25;;;;;;;18.02;12.63;;;11.90;99.90;;;;;;7362485;19;20057;-47
2022/11/11 11:02:28;;;;;;;17.10;12.48;;;12.00;99.90;;;;;;7372107;19;20014;-49
2022/11/11 11:05:21;;;;;;;15.48;12.65;;;11.90;99.90;;;;;;7371994;19;20014;-47
2022/11/11 11:08:11;;;;;;;15.25;12.77;;;11.90;99.90;;;;;;7364832;19;20015;-50
2022/11/11 11:10:59;;;;;;;22.25;15.80;;;12.00;99.90;;;;;;7368900;19;20511;-47
2022/11/11 11:14:01;;;;;;;19.45;16.88;;;12.10;99.90;;;;;;7371761;19;20029;-45
2022/11/11 11:16:50;;;;;;;20.05;17.38;;;12.10;99.90;;;;;;7371063;19;20024;-41
2022/11/11 11:19:36;;;;;;;19.95;15.95;;;12.10;99.90;;;;;;7368986;19;20022;-49
2022/11/11 11:22:32;;;;;;;20.02;15.98;;;12.10;99.90;;;;;;7369424;19;20019;-44
2022/11/11 11:25:19;;;;;;;18.42;15.60;;;12.10;99.90;;;;;;7370566;19;20026;-46
2022/11/11 11:28:12;;;;;;;19.15;15.00;;;12.10;99.90;;;;;;7367448;19;20029;-39
2022/11/11 11:31:03;;;;;;;17.45;13.43;;;12.10;99.90;;;;;;7371303;19;20043;-42
2022/11/11 11:33:55;;;;;;;18.42;14.02;;;12.10;99.90;;;;;;7370134;19;20022;-40
2022/11/11 11:36:41;;;;;;;20.20;13.93;;;12.10;99.90;;;;;;7373049;19;20025;-39
2022/11/11 11:39:37;;;;;;;16.23;13.45;;;12.20;99.90;;;;;;7370151;19;20018;-39
2022/11/11 11:42:28;;;;;;;17.58;13.68;;;12.20;99.90;;;;;;7369523;19;20019;-41
2022/11/11 11:45:25;;;;;;;18.07;13.47;;;12.30;99.90;;;;;;7370693;19;20527;-39
2022/11/11 11:48:44;;;;;;;18.17;12.88;;;12.40;99.90;;;;;;7364517;19;20014;-39
2022/11/11 11:51:42;;;;;;;16.70;13.48;;;12.60;99.90;;;;;;7366081;19;20404;-39
2022/11/11 11:54:54;;;;;;;15.68;12.85;;;12.80;99.90;;;;;;7362035;19;20018;-40
2022/11/11 11:57:45;;;;;;;14.43;11.25;;;12.90;99.90;;;;;;7372403;19;20019;-40
2022/11/11 12:00:40;;;;;;;14.68;11.38;;;13.10;99.90;;;;;;7369138;19;20094;-41
2022/11/11 12:04:03;;;;;;;13.30;11.55;;;13.10;99.90;;;;;;7370754;19;20021;-50
2022/11/11 12:07:20;;;;;;;12.27;10.98;;;13.20;99.90;;;;;;7369329;19;20019;-46
2022/11/11 12:10:22;;;;;;;12.90;11.40;;;13.30;99.90;;;;;;7374325;19;20018;-46
2022/11/11 12:13:24;;;;;;;;;;;13.30;99.90;;;;;;7375991;19;20015;-49
2022/11/11 12:16:54;;;;;;;11.73;10.52;;;13.80;99.90;;;;;;7371788;19;20086;-46
2022/11/11 12:19:58;;;;;;;12.80;10.75;;;14.10;99.90;;;;;;7371361;19;20511;-48
2022/11/11 12:22:48;;;;;;;11.70;10.45;;;14.40;99.90;;;;;;7377394;19;20014;-45
2022/11/11 12:26:12;;;;;;;12.43;11.05;;;15.00;99.90;;;;;;7375892;19;20561;-46
2022/11/11 12:29:26;;;;;;;13.70;9.55;;;16.00;99.90;;;;;;7373576;19;20596;-49
2022/11/11 12:32:32;;;;;;;10.55;8.48;;;16.40;99.90;;;;;;7376086;19;20099;-44
2022/11/11 12:35:49;;;;;;;11.40;10.10;;;16.60;99.90;;;;;;7376404;19;20111;-47
2022/11/11 12:39:04;;;;;;;13.77;9.82;;;15.80;99.90;;;;;;7374428;19;20559;-45
2022/11/11 12:42:18;;;;;;;12.02;10.07;;;15.30;99.90;;;;;;7376793;19;20018;-47
2022/11/11 12:45:36;;;;;;;12.20;9.38;;;15.00;99.90;;;;;;7374304;19;20018;-46
2022/11/11 12:48:36;;;;;;;12.48;10.18;;;14.90;99.90;;;;;;7374410;19;20077;-46
2022/11/11 12:51:27;;;;;;;11.80;10.43;;;14.90;99.90;;;;;;7369451;19;20378;-44
2022/11/11 12:54:35;;;;;;;12.35;9.35;;;14.70;99.90;;;;;;7368373;19;20528;-47
2022/11/11 12:57:30;;;;;;;12.30;9.25;;;14.50;99.90;;;;;;7373245;19;20018;-54
2022/11/11 13:00:18;;;;;;;13.68;10.93;;;14.80;99.90;;;;;;7366992;19;20022;-47
2022/11/11 13:03:12;;;;;;;10.50;9.38;;;14.80;99.90;;;;;;7372518;19;20022;-47
2022/11/11 13:06:25;;;;;;;14.07;9.35;;;14.90;99.90;;;;;;7373890;19;20014;-48
2022/11/11 13:09:36;;;;;;;12.10;10.32;;;15.20;99.90;;;;;;7371080;19;20380;-49
2022/11/11 13:12:46;;;;;;;11.27;8.90;;;15.30;99.90;;;;;;7373348;19;20018;-40
2022/11/11 13:15:31;;;;;;;8.88;7.78;;;15.90;99.90;;;;;;7374084;19;20014;-40
2022/11/11 13:18:26;;;;;;;9.40;8.40;;;16.10;99.90;;;;;;7369037;19;20025;-40
2022/11/11 13:21:20;;;;;;;11.82;9.30;;;16.10;99.90;;;;;;7368149;19;20382;-40
2022/11/11 13:24:12;;;;;;;11.43;9.13;;;16.00;99.90;;;;;;7373924;19;20074;-40
2022/11/11 13:27:00;;;;;;;;;;;16.00;99.90;;;;;;7370978;19;20016;-41
2022/11/11 13:29:55;;;;;;;10.55;8.60;;;16.30;99.90;;;;;;7373879;19;20341;-45
2022/11/11 13:32:58;;;;;;;10.55;8.88;;;16.10;99.90;;;;;;7368014;19;20026;-41
2022/11/11 13:35:53;;;;;;;11.00;8.43;;;16.30;99.90;;;;;;7364344;19;20014;-40
2022/11/11 13:38:58;;;;;;;11.05;8.60;;;16.40;99.90;;;;;;7369401;19;20022;-40
2022/11/11 13:41:49;;;;;;;9.95;8.85;;;16.10;99.90;;;;;;7369167;19;20023;-49
2022/11/11 13:44:57;;;;;;;11.43;9.70;;;16.00;99.90;;;;;;7370775;19;20026;-40
2022/11/11 13:47:46;;;;;;;10.75;8.80;;;16.30;99.90;;;;;;7367573;19;20105;-46
2022/11/11 13:50:35;;;;;;;11.27;9.23;;;16.50;99.90;;;;;;7374952;19;20023;-41
2022/11/11 13:53:33;;;;;;;9.73;8.73;;;16.70;99.90;;;;;;7375831;19;20022;-48
2022/11/11 13:56:42;;;;;;;10.98;9.18;;;16.60;99.90;;;;;;7371583;19;20019;-48
2022/11/11 13:59:30;;;;;;;11.68;8.20;;;16.40;99.90;;;;;;7368495;19;20404;-47
2022/11/11 14:02:18;;;;;;;12.68;9.73;;;16.40;99.90;;;;;;7369310;19;20624;-46
2022/11/11 14:05:07;;;;;;;11.50;9.27;;;16.50;99.90;;;;;;7371611;19;20038;-47
2022/11/11 14:07:56;;;;;;;12.07;8.88;;;16.40;99.90;;;;;;7372526;19;21361;-49
2022/11/11 14:10:51;;;;;;;12.73;8.77;;;16.10;99.90;;;;;;7367955;19;20043;-46
2022/11/11 14:13:37;;;;;;;10.98;8.70;;;16.30;99.90;;;;;;7366279;19;20018;-48
2022/11/11 14:16:34;;;;;;;10.75;8.63;;;16.50;99.90;;;;;;7367028;19;20057;-49
2022/11/11 14:19:19;;;;;;;9.60;8.25;;;16.30;99.90;;;;;;7369854;19;20018;-39
2022/11/11 14:22:27;;;;;;;11.48;8.55;;;16.30;99.90;;;;;;7367995;19;20018;-40
2022/11/11 14:25:27;;;;;;;9.55;8.55;;;16.20;99.90;;;;;;7375402;19;20668;-40
2022/11/11 14:28:28;;;;;;;10.18;8.07;;;16.00;99.90;;;;;;7368759;19;20079;-45
2022/11/11 14:31:14;;;;;;;15.35;9.13;;;15.90;99.90;;;;;;7366831;19;20026;-40
2022/11/11 14:34:25;;;;;;;9.55;8.23;;;15.50;99.90;;;;;;7369422;19;20022;-39
2022/11/11 14:37:39;;;;;;;12.68;7.90;;;15.30;99.90;;;;;;7365330;19;20010;-42
2022/11/11 14:40:29;;;;;;;12.43;8.45;;;14.80;99.90;;;;;;7369592;19;20014;-39
2022/11/11 14:43:38;;;;;;;11.52;8.57;;;14.70;99.90;;;;;;7366755;19;20786;-40
2022/11/11 14:46:24;;;;;;;12.27;8.82;;;14.50;99.90;;;;;;7370002;19;20018;-39
2022/11/11 14:49:09;;;;;;;11.77;9.07;;;14.10;99.90;;;;;;7367498;19;20453;-40
2022/11/11 14:52:01;;;;;;;10.40;8.85;;;14.00;99.90;;;;;;7370047;19;20019;-39
2022/11/11 14:54:49;;;;;;;10.32;8.63;;;13.70;99.90;;;;;;7372223;19;20018;-41
2022/11/11 14:57:40;;;;;;;11.90;9.10;;;13.60;99.90;;;;;;7369991;19;20033;-41
2022/11/11 15:00:29;;;;;;;12.07;9.02;;;13.40;99.90;;;;;;7372440;19;20473;-39
2022/11/11 15:03:39;;;;;;;11.73;10.02;;;13.30;99.90;;;;;;7364699;19;20010;-38
2022/11/11 15:06:42;;;;;;;12.23;9.27;;;13.10;99.90;;;;;;7366535;19;20025;-39
2022/11/11 15:09:48;;;;;;;12.23;9.13;;;12.90;99.90;;;;;;7366912;19;20018;-39
2022/11/11 15:12:52;;;;;;;16.00;10.02;;;12.80;99.90;;;;;;7369784;19;20393;-40
2022/11/11 15:16:13;;;;;;;10.85;8.82;;;12.60;99.90;;;;;;7368106;19;20376;-40
2022/11/11 15:19:10;;;;;;;13.85;9.52;;;12.50;99.90;;;;;;7363751;19;20051;-41
2022/11/11 15:22:16;;;;;;;14.75;10.27;;;12.30;99.90;;;;;;7366434;19;20018;-41
2022/11/11 15:25:25;;;;;;;12.90;10.55;;;12.10;99.90;;;;;;7366031;19;20019;-40
2022/11/11 15:28:22;;;;;;;11.77;9.23;;;12.00;99.90;;;;;;7368550;19;20347;-39
2022/11/11 15:31:17;;;;;;;13.10;10.35;;;11.90;99.90;;;;;;7365433;19;20014;-40
2022/11/11 15:34:27;;;;;;;13.27;10.52;;;11.80;99.90;;;;;;7368428;19;20014;-40
2022/11/11 15:37:16;;;;;;;16.23;10.30;;;11.70;99.90;;;;;;7204091;19;3089979;-41
2022/11/11 15:40:03;;;;;;;16.30;9.73;;;11.60;99.90;;;;;;7367474;19;20019;-40
2022/11/11 15:42:50;;;;;;;13.70;10.05;;;11.40;99.90;;;;;;7367836;19;20469;-40
2022/11/11 15:45:35;;;;;;;14.25;9.88;;;11.30;99.90;;;;;;7363735;19;20026;-40
2022/11/11 15:48:28;;;;;;;12.38;9.77;;;11.20;99.90;;;;;;7358022;19;20444;-41